Time;durP1;ratioP1;P1;durP2;ratioP2;P2;SDS_P1;SDS_P2;PMS_P1;PMS_P2;Temp;Humidity;BMP_temperature;BMP_pressure;BME280_temperature;BME280_humidity;BME280_pressure;Samples;Min_cycle;Max_cycle;Signal;HPM_P1;HPM_P2
2020/12/29 00:00:25;;;;;;;5.55;2.83;;;2.70;85.50;;;;;;5066852;28;20020;-69
2020/12/29 00:02:51;;;;;;;5.53;3.22;;;2.70;85.40;;;;;;5072123;28;20032;-66
2020/12/29 00:05:19;;;;;;;7.25;3.58;;;2.70;85.30;;;;;;5070132;28;20107;-68
2020/12/29 00:07:53;;;;;;;5.20;2.70;;;2.70;85.30;;;;;;5071624;28;20028;-66
2020/12/29 00:10:25;;;;;;;4.10;2.30;;;2.80;85.30;;;;;;5071502;28;20475;-67
2020/12/29 00:12:51;;;;;;;2.58;2.22;;;2.80;85.30;;;;;;5070867;28;20031;-67
2020/12/29 00:15:17;;;;;;;2.30;2.10;;;2.80;85.20;;;;;;5070535;28;20381;-67
2020/12/29 00:17:43;;;;;;;3.97;2.58;;;2.90;85.10;;;;;;5069227;28;20039;-68
2020/12/29 00:20:09;;;;;;;4.50;2.50;;;2.90;84.90;;;;;;5072155;28;20052;-67
2020/12/29 00:22:36;;;;;;;2.72;2.17;;;2.90;84.70;;;;;;5070720;28;20031;-67
2020/12/29 00:25:02;;;;;;;4.50;2.88;;;3.00;84.70;;;;;;5070373;28;20487;-68
2020/12/29 00:27:28;;;;;;;8.30;2.50;;;3.00;84.50;;;;;;5066679;28;20043;-67
2020/12/29 00:29:53;;;;;;;2.80;2.58;;;3.00;84.40;;;;;;5065304;28;20037;-67
2020/12/29 00:32:20;;;;;;;3.60;2.60;;;3.00;84.40;;;;;;5068761;28;20728;-68
2020/12/29 00:34:49;;;;;;;3.53;2.65;;;3.00;84.40;;;;;;5069075;28;20032;-68
2020/12/29 00:37:15;;;;;;;4.03;2.65;;;3.00;84.30;;;;;;5072222;28;20383;-67
2020/12/29 00:39:42;;;;;;;3.10;2.60;;;3.00;84.30;;;;;;5066630;28;20021;-67
2020/12/29 00:42:08;;;;;;;2.72;2.40;;;3.10;84.30;;;;;;5070845;28;20447;-67
2020/12/29 00:44:34;;;;;;;2.47;2.28;;;3.10;84.30;;;;;;5071322;28;20033;-67
2020/12/29 00:47:00;;;;;;;3.28;2.17;;;3.10;84.20;;;;;;5071913;28;20065;-67
2020/12/29 00:49:25;;;;;;;2.40;2.05;;;3.10;84.10;;;;;;5067815;28;20059;-68
2020/12/29 00:51:54;;;;;;;3.92;2.00;;;3.10;84.00;;;;;;5071817;28;20036;-68
2020/12/29 00:54:21;;;;;;;2.58;2.00;;;3.10;84.00;;;;;;5069359;28;20139;-66
2020/12/29 00:56:46;;;;;;;2.67;2.20;;;3.10;84.10;;;;;;5070269;28;20035;-68
2020/12/29 00:59:13;;;;;;;1.90;1.75;;;3.00;84.40;;;;;;5070137;28;20036;-67
2020/12/29 01:01:39;;;;;;;2.15;1.90;;;2.90;84.70;;;;;;5070631;28;20100;-68
2020/12/29 01:04:04;;;;;;;2.25;1.98;;;2.90;85.00;;;;;;5070776;28;20033;-66
2020/12/29 01:06:30;;;;;;;2.28;2.08;;;2.90;85.00;;;;;;5070784;28;20032;-69
2020/12/29 01:08:56;;;;;;;1.80;1.60;;;2.90;85.10;;;;;;5069074;28;20036;-67
2020/12/29 01:11:22;;;;;;;3.95;1.60;;;2.90;85.50;;;;;;5070107;28;20020;-68
2020/12/29 01:13:48;;;;;;;1.42;1.33;;;2.90;85.00;;;;;;5069396;28;20025;-69
2020/12/29 01:16:13;;;;;;;1.33;1.23;;;3.00;84.90;;;;;;5064411;28;20020;-66
2020/12/29 01:18:39;;;;;;;1.55;1.45;;;3.00;84.80;;;;;;5071145;28;20380;-68
2020/12/29 01:21:08;;;;;;;4.20;1.40;;;3.10;84.70;;;;;;5069876;28;20025;-67
2020/12/29 01:23:33;;;;;;;1.35;1.25;;;3.20;84.60;;;;;;5071220;28;20030;-67
2020/12/29 01:25:59;;;;;;;1.38;1.27;;;3.20;84.50;;;;;;5066597;28;20025;-67
2020/12/29 01:28:24;;;;;;;1.48;1.00;;;3.30;84.40;;;;;;5069797;28;20111;-68
2020/12/29 01:30:50;;;;;;;1.20;1.10;;;3.30;84.30;;;;;;5067578;28;20052;-67
2020/12/29 01:33:15;;;;;;;1.10;1.10;;;3.30;84.20;;;;;;5068576;28;20481;-67
2020/12/29 01:35:41;;;;;;;1.58;1.00;;;3.40;84.20;;;;;;5065919;28;20090;-68
2020/12/29 01:38:06;;;;;;;1.30;1.20;;;3.40;84.10;;;;;;5069004;28;20405;-69
2020/12/29 01:40:33;;;;;;;1.20;1.10;;;3.40;84.10;;;;;;5071659;28;20023;-66
2020/12/29 01:42:59;;;;;;;4.47;1.80;;;3.50;84.10;;;;;;5066810;28;20021;-67
2020/12/29 01:45:24;;;;;;;2.13;1.40;;;3.50;84.00;;;;;;5069969;28;20062;-69
2020/12/29 01:47:51;;;;;;;2.20;1.17;;;3.50;84.00;;;;;;5067787;28;20048;-68
2020/12/29 01:50:24;;;;;;;1.77;1.05;;;3.50;84.10;;;;;;5069073;28;20093;-68
2020/12/29 01:53:00;;;;;;;1.13;1.02;;;3.50;84.00;;;;;;5070794;28;20024;-67
2020/12/29 01:55:27;;;;;;;1.20;1.10;;;3.50;84.00;;;;;;5063521;28;20024;-67
2020/12/29 01:57:53;;;;;;;1.60;1.38;;;3.50;84.00;;;;;;5070617;28;20025;-66
2020/12/29 02:00:18;;;;;;;1.45;1.10;;;3.50;83.90;;;;;;5069755;28;20360;-66
2020/12/29 02:02:46;;;;;;;1.10;1.00;;;3.50;83.90;;;;;;5067837;28;20082;-66
2020/12/29 02:05:12;;;;;;;0.85;0.85;;;3.60;83.90;;;;;;5067466;28;20056;-68
2020/12/29 02:07:39;;;;;;;2.17;1.08;;;3.60;83.90;;;;;;5070107;28;20498;-68
2020/12/29 02:10:05;;;;;;;0.90;0.90;;;3.60;83.90;;;;;;5067195;28;20099;-67
2020/12/29 02:12:35;;;;;;;0.70;0.70;;;3.60;83.70;;;;;;5069168;28;20020;-67
2020/12/29 02:15:03;;;;;;;1.88;1.00;;;3.60;83.60;;;;;;5068508;28;20028;-67
2020/12/29 02:17:29;;;;;;;2.47;0.80;;;3.70;83.70;;;;;;5069464;28;20107;-67
2020/12/29 02:19:54;;;;;;;1.00;1.00;;;3.70;83.70;;;;;;5069576;28;20532;-66
2020/12/29 02:22:25;;;;;;;0.88;0.88;;;3.70;83.60;;;;;;5067740;28;20385;-67
2020/12/29 02:24:52;;;;;;;0.70;0.70;;;3.70;83.60;;;;;;5066750;28;20431;-68
2020/12/29 02:27:19;;;;;;;2.25;1.30;;;3.70;83.70;;;;;;5065198;28;20028;-67
2020/12/29 02:29:45;;;;;;;1.23;1.00;;;3.70;83.70;;;;;;5064664;28;20028;-67
2020/12/29 02:32:11;;;;;;;1.85;1.00;;;3.70;83.80;;;;;;5068639;28;20115;-67
2020/12/29 02:34:38;;;;;;;1.17;1.08;;;3.60;83.90;;;;;;5068054;28;20446;-67
2020/12/29 02:37:08;;;;;;;0.80;0.80;;;3.60;84.00;;;;;;5067238;28;20099;-68
2020/12/29 02:39:35;;;;;;;0.90;0.80;;;3.60;84.10;;;;;;5056340;28;20024;-67
2020/12/29 02:42:01;;;;;;;0.70;0.70;;;3.60;84.20;;;;;;5069357;28;20028;-68
2020/12/29 02:44:27;;;;;;;0.90;0.90;;;3.60;84.10;;;;;;5067781;28;20108;-69
2020/12/29 02:46:52;;;;;;;2.42;0.80;;;3.60;84.30;;;;;;5068639;28;20427;-67
2020/12/29 02:49:18;;;;;;;1.20;0.77;;;3.60;84.30;;;;;;5069209;28;20499;-67
2020/12/29 02:51:44;;;;;;;0.70;0.70;;;3.60;84.40;;;;;;5069201;28;20032;-68
2020/12/29 02:54:13;;;;;;;0.70;0.70;;;3.60;84.40;;;;;;5067390;28;20913;-68
2020/12/29 02:56:42;;;;;;;0.63;0.63;;;3.70;84.50;;;;;;5070224;28;20048;-68
2020/12/29 02:59:09;;;;;;;1.08;0.60;;;3.70;84.40;;;;;;5067577;28;20025;-68
2020/12/29 03:01:35;;;;;;;0.80;0.80;;;3.70;84.40;;;;;;5070049;28;20449;-67
2020/12/29 03:04:00;;;;;;;0.70;0.70;;;3.70;84.40;;;;;;5067464;28;20043;-68
2020/12/29 03:06:26;;;;;;;0.80;0.70;;;3.70;84.40;;;;;;5069398;28;20020;-67
2020/12/29 03:08:52;;;;;;;0.70;0.70;;;3.70;84.60;;;;;;5068854;28;20032;-67
2020/12/29 03:11:28;;;;;;;0.93;0.70;;;3.70;84.50;;;;;;5070152;28;20024;-67
2020/12/29 03:13:55;;;;;;;0.88;0.70;;;3.60;84.60;;;;;;5067456;28;20028;-67
2020/12/29 03:16:21;;;;;;;1.85;0.82;;;3.70;84.80;;;;;;5070163;28;20037;-66
2020/12/29 03:18:46;;;;;;;1.00;1.00;;;3.70;84.70;;;;;;5061351;28;20089;-68
2020/12/29 03:21:12;;;;;;;0.88;0.68;;;3.70;84.60;;;;;;5069332;28;20512;-68
2020/12/29 03:23:38;;;;;;;0.90;0.77;;;3.60;84.50;;;;;;5066094;28;20025;-69
2020/12/29 03:26:04;;;;;;;0.82;0.80;;;3.60;84.80;;;;;;5065097;28;20039;-69
2020/12/29 03:28:29;;;;;;;1.02;0.90;;;3.60;85.10;;;;;;5069066;28;20028;-67
2020/12/29 03:30:55;;;;;;;0.73;0.73;;;3.60;85.10;;;;;;5068869;28;20020;-67
2020/12/29 03:33:21;;;;;;;0.93;0.93;;;3.60;85.10;;;;;;5067509;28;20400;-67
2020/12/29 03:35:46;;;;;;;0.93;0.80;;;3.60;84.90;;;;;;5069834;28;20033;-68
2020/12/29 03:38:12;;;;;;;2.15;1.20;;;3.60;84.70;;;;;;5071214;28;20541;-66
2020/12/29 03:40:37;;;;;;;0.75;0.75;;;3.60;84.80;;;;;;5073366;28;20021;-68
2020/12/29 03:43:03;;;;;;;1.13;0.90;;;3.50;84.90;;;;;;5070481;28;20082;-67
2020/12/29 03:45:28;;;;;;;2.10;0.80;;;3.40;85.00;;;;;;5072389;28;20028;-69
2020/12/29 03:47:54;;;;;;;1.35;1.10;;;3.50;85.20;;;;;;5069348;28;20021;-66
2020/12/29 03:50:19;;;;;;;1.58;1.08;;;3.50;85.30;;;;;;5073080;28;20035;-67
2020/12/29 03:52:46;;;;;;;1.10;1.10;;;3.50;85.40;;;;;;5072047;28;20531;-67
2020/12/29 03:55:12;;;;;;;1.80;0.90;;;3.60;85.40;;;;;;5071697;28;20166;-67
2020/12/29 03:57:38;;;;;;;1.30;1.10;;;3.60;85.30;;;;;;5069718;28;20107;-68
2020/12/29 04:00:05;;;;;;;0.90;0.90;;;3.60;85.20;;;;;;5071311;28;20174;-67
2020/12/29 04:02:31;;;;;;;0.85;0.85;;;3.70;85.20;;;;;;5072623;28;20365;-68
2020/12/29 04:04:57;;;;;;;0.85;0.85;;;3.70;85.10;;;;;;5070719;28;20031;-68
2020/12/29 04:07:22;;;;;;;1.00;0.85;;;3.70;85.10;;;;;;5071270;28;20032;-67
2020/12/29 04:09:48;;;;;;;1.38;0.93;;;3.70;85.20;;;;;;5071424;28;20017;-67
2020/12/29 04:12:13;;;;;;;1.92;0.80;;;3.60;85.30;;;;;;5070758;28;20023;-68
2020/12/29 04:14:39;;;;;;;0.70;0.70;;;3.60;85.30;;;;;;5070051;28;20035;-66
2020/12/29 04:17:04;;;;;;;0.52;0.52;;;3.60;85.50;;;;;;5078418;22;21493;-73
2020/12/29 04:19:30;;;;;;;1.10;0.60;;;3.60;85.70;;;;;;5030285;28;20061;-73
2020/12/29 04:21:56;;;;;;;0.50;0.50;;;3.60;85.90;;;;;;5032970;28;20095;-73
2020/12/29 04:24:21;;;;;;;0.52;0.52;;;3.60;86.00;;;;;;5030009;28;20425;-74
2020/12/29 04:26:47;;;;;;;0.65;0.43;;;3.60;86.10;;;;;;5028936;28;20029;-73
2020/12/29 04:29:12;;;;;;;0.65;0.50;;;3.60;86.30;;;;;;5026873;28;20527;-73
2020/12/29 04:31:38;;;;;;;0.40;0.40;;;3.60;86.40;;;;;;5030760;28;20026;-74
2020/12/29 04:34:03;;;;;;;0.40;0.40;;;3.70;87.00;;;;;;5025052;28;20045;-73
2020/12/29 04:36:29;;;;;;;0.65;0.47;;;3.80;86.30;;;;;;5031301;28;20492;-73
2020/12/29 04:38:54;;;;;;;0.68;0.50;;;3.80;86.10;;;;;;5032482;28;20469;-73
2020/12/29 04:41:20;;;;;;;1.10;0.40;;;3.90;86.20;;;;;;5028810;28;20444;-73
2020/12/29 04:43:47;;;;;;;0.30;0.30;;;3.90;86.20;;;;;;5028221;28;20502;-73
2020/12/29 04:46:12;;;;;;;0.35;0.35;;;4.00;86.10;;;;;;5029667;28;20048;-73
2020/12/29 04:48:38;;;;;;;0.40;0.40;;;4.00;85.90;;;;;;5025644;28;20481;-73
2020/12/29 04:51:08;;;;;;;0.73;0.50;;;4.10;85.80;;;;;;5030991;28;20022;-73
2020/12/29 04:53:35;;;;;;;0.50;0.50;;;4.20;85.60;;;;;;5030820;28;20041;-73
2020/12/29 04:56:06;;;;;;;0.40;0.40;;;4.20;85.40;;;;;;5028486;28;20021;-73
2020/12/29 04:58:37;;;;;;;0.63;0.50;;;4.30;85.10;;;;;;5032384;28;20381;-73
2020/12/29 05:01:09;;;;;;;0.38;0.32;;;4.30;85.00;;;;;;5030878;28;20021;-73
2020/12/29 05:03:42;;;;;;;1.15;0.52;;;4.40;84.90;;;;;;5029441;28;20057;-73
2020/12/29 05:06:08;;;;;;;3.10;0.63;;;4.40;84.80;;;;;;5030238;28;20032;-73
2020/12/29 05:08:34;;;;;;;0.50;0.50;;;4.40;84.60;;;;;;5026631;28;20371;-73
2020/12/29 05:10:59;;;;;;;1.65;0.60;;;4.40;84.50;;;;;;5030519;28;20159;-73
2020/12/29 05:13:25;;;;;;;0.45;0.40;;;4.50;84.50;;;;;;5027391;28;20021;-73
2020/12/29 05:15:50;;;;;;;0.40;0.40;;;4.50;84.10;;;;;;5030626;28;20160;-73
2020/12/29 05:18:16;;;;;;;1.08;0.50;;;4.50;84.00;;;;;;5030161;28;20124;-73
2020/12/29 05:20:43;;;;;;;0.40;0.40;;;4.60;83.90;;;;;;5032873;28;20025;-73
2020/12/29 05:23:09;;;;;;;1.45;0.50;;;4.60;83.80;;;;;;5031321;28;20404;-73
2020/12/29 05:25:34;;;;;;;1.30;0.45;;;4.60;83.70;;;;;;5029050;28;20033;-73
2020/12/29 05:28:00;;;;;;;0.90;0.40;;;4.60;83.50;;;;;;5030445;28;20033;-73
2020/12/29 05:30:27;;;;;;;1.15;0.60;;;4.60;82.90;;;;;;5031918;28;20083;-73
2020/12/29 05:32:53;;;;;;;0.40;0.40;;;4.70;82.90;;;;;;5028879;28;20516;-73
2020/12/29 05:35:19;;;;;;;0.63;0.47;;;4.70;82.40;;;;;;5029802;28;20025;-73
2020/12/29 05:37:45;;;;;;;0.55;0.38;;;4.70;82.40;;;;;;5023777;28;20041;-74
2020/12/29 05:40:27;;;;;;;1.05;0.50;;;4.80;82.60;;;;;;5030753;28;20448;-73
2020/12/29 05:42:54;;;;;;;0.40;0.40;;;4.80;82.60;;;;;;5031048;28;20100;-73
2020/12/29 05:45:19;;;;;;;0.93;0.50;;;4.80;82.10;;;;;;5030253;28;20057;-74
2020/12/29 05:47:52;;;;;;;1.60;0.40;;;4.80;82.10;;;;;;5027957;28;20115;-73
2020/12/29 05:50:19;;;;;;;0.73;0.40;;;4.80;81.70;;;;;;5024519;28;20105;-73
2020/12/29 05:52:50;;;;;;;0.35;0.30;;;4.90;81.70;;;;;;5020514;28;20044;-74
2020/12/29 05:55:15;;;;;;;1.27;0.60;;;4.80;81.60;;;;;;5028985;28;20456;-74
2020/12/29 05:57:42;;;;;;;0.77;0.40;;;4.90;81.80;;;;;;5028578;28;20029;-74
2020/12/29 06:00:07;;;;;;;0.57;0.50;;;4.90;81.80;;;;;;5031694;28;20124;-74
2020/12/29 06:02:33;;;;;;;1.42;0.45;;;4.90;81.80;;;;;;5029919;28;20481;-73
2020/12/29 06:05:00;;;;;;;0.40;0.40;;;4.90;81.10;;;;;;5029958;28;20034;-73
2020/12/29 06:07:26;;;;;;;0.50;0.50;;;4.90;81.50;;;;;;5030789;28;20401;-74
2020/12/29 06:09:54;;;;;;;1.08;0.60;;;4.90;81.60;;;;;;5027916;28;20029;-74
2020/12/29 06:12:31;;;;;;;0.47;0.40;;;4.90;81.20;;;;;;5028782;28;20022;-74
2020/12/29 06:14:57;;;;;;;0.60;0.60;;;4.90;81.40;;;;;;5027806;28;20025;-74
2020/12/29 06:17:32;;;;;;;2.05;0.50;;;4.90;81.10;;;;;;5029708;28;20101;-74
2020/12/29 06:20:05;;;;;;;0.68;0.50;;;4.90;81.30;;;;;;5025011;28;20075;-74
2020/12/29 06:22:31;;;;;;;0.47;0.47;;;4.90;81.30;;;;;;5030752;28;20029;-73
2020/12/29 06:24:59;;;;;;;0.63;0.60;;;4.90;81.20;;;;;;5029154;28;20030;-73
2020/12/29 06:27:31;;;;;;;1.70;0.73;;;4.90;81.20;;;;;;5026040;28;20018;-73
2020/12/29 06:29:57;;;;;;;0.88;0.60;;;4.90;80.90;;;;;;5023924;28;20025;-73
2020/12/29 06:32:25;;;;;;;0.40;0.40;;;4.90;81.00;;;;;;5029160;28;20033;-73
2020/12/29 06:34:50;;;;;;;0.98;0.43;;;4.90;80.80;;;;;;5029887;28;20025;-74
2020/12/29 06:37:26;;;;;;;1.67;0.47;;;4.90;80.90;;;;;;5030000;28;20021;-73
2020/12/29 06:40:04;;;;;;;0.40;0.40;;;4.90;80.80;;;;;;5027929;28;20531;-72
2020/12/29 06:42:30;;;;;;;0.40;0.40;;;4.90;80.60;;;;;;5025904;28;20083;-73
2020/12/29 06:44:57;;;;;;;0.50;0.50;;;4.90;80.50;;;;;;5028047;28;20029;-73
2020/12/29 06:47:27;;;;;;;0.40;0.40;;;4.90;80.70;;;;;;5029112;28;20033;-74
2020/12/29 06:49:53;;;;;;;0.50;0.50;;;4.90;80.80;;;;;;5022571;28;20025;-73
2020/12/29 06:52:25;;;;;;;2.00;0.57;;;4.90;80.80;;;;;;5028815;28;20095;-74
2020/12/29 06:54:59;;;;;;;0.40;0.40;;;4.80;80.90;;;;;;5027813;28;20548;-73
2020/12/29 06:57:44;;;;;;;1.58;0.55;;;4.80;81.20;;;;;;5029117;28;20381;-74
2020/12/29 07:00:10;;;;;;;0.73;0.50;;;4.90;81.40;;;;;;5013856;28;20029;-74
2020/12/29 07:02:36;;;;;;;1.38;0.65;;;4.90;81.20;;;;;;5029129;28;20171;-74
2020/12/29 07:05:17;;;;;;;1.98;0.50;;;4.80;81.20;;;;;;5029148;28;20437;-73
2020/12/29 07:07:59;;;;;;;1.63;0.60;;;4.80;81.40;;;;;;5029970;28;20097;-72
2020/12/29 07:10:35;;;;;;;0.63;0.50;;;4.80;81.60;;;;;;5021531;28;20553;-73
2020/12/29 07:13:14;;;;;;;0.52;0.52;;;4.80;81.60;;;;;;5028331;28;20033;-73
2020/12/29 07:15:51;;;;;;;0.30;0.30;;;4.70;81.10;;;;;;5021480;28;20071;-73
2020/12/29 07:18:20;;;;;;;0.40;0.40;;;4.40;80.80;;;;;;5027866;28;20163;-73
2020/12/29 07:20:48;;;;;;;0.30;0.30;;;4.10;81.00;;;;;;5029285;28;20462;-73
2020/12/29 07:23:17;;;;;;;0.40;0.40;;;3.80;82.00;;;;;;5029904;28;20026;-73
2020/12/29 07:25:46;;;;;;;0.30;0.30;;;3.60;82.70;;;;;;5028883;28;20047;-73
2020/12/29 07:28:13;;;;;;;0.50;0.50;;;3.40;83.20;;;;;;5027677;28;20033;-73
2020/12/29 07:30:38;;;;;;;0.40;0.40;;;3.30;83.60;;;;;;5029433;28;20048;-73
2020/12/29 07:33:06;;;;;;;0.40;0.40;;;3.20;83.90;;;;;;5028678;28;20029;-73
2020/12/29 07:35:36;;;;;;;0.60;0.60;;;3.10;84.00;;;;;;5027032;28;20037;-73
2020/12/29 07:38:12;;;;;;;1.45;0.70;;;3.10;84.30;;;;;;5029178;28;20065;-72
2020/12/29 07:40:38;;;;;;;0.55;0.55;;;3.10;84.40;;;;;;5025843;28;20539;-72
2020/12/29 07:43:05;;;;;;;2.00;1.50;;;3.00;84.50;;;;;;5029448;28;20120;-73
2020/12/29 07:45:30;;;;;;;1.20;1.10;;;3.00;85.10;;;;;;5028866;28;20030;-72
2020/12/29 07:48:01;;;;;;;0.50;0.50;;;2.90;85.10;;;;;;5027044;28;20038;-72
2020/12/29 07:50:28;;;;;;;1.33;1.20;;;2.80;85.40;;;;;;5029355;28;20055;-73
2020/12/29 07:53:07;;;;;;;0.88;0.88;;;2.80;85.60;;;;;;5027398;28;20029;-73
2020/12/29 07:55:35;;;;;;;0.70;0.70;;;2.80;85.70;;;;;;5028421;28;20430;-73
2020/12/29 07:58:04;;;;;;;0.65;0.65;;;2.80;85.90;;;;;;5027576;28;20033;-73
2020/12/29 08:00:31;;;;;;;0.70;0.70;;;2.80;85.90;;;;;;5028627;28;20533;-73
2020/12/29 08:02:57;;;;;;;0.80;0.80;;;2.80;86.40;;;;;;5029168;28;20472;-73
2020/12/29 08:05:24;;;;;;;0.70;0.70;;;2.80;86.10;;;;;;5028606;28;20052;-73
2020/12/29 08:07:54;;;;;;;0.60;0.60;;;2.70;86.20;;;;;;5028590;28;20026;-73
2020/12/29 08:10:22;;;;;;;0.80;0.80;;;2.70;86.30;;;;;;5029513;28;20025;-72
2020/12/29 08:12:51;;;;;;;0.60;0.60;;;2.70;86.40;;;;;;5029337;28;20037;-73
2020/12/29 08:15:24;;;;;;;0.57;0.57;;;2.70;86.60;;;;;;5023060;28;20452;-72
2020/12/29 08:18:20;;;;;;;0.90;0.90;;;2.60;86.60;;;;;;5022488;28;20098;-74
2020/12/29 08:20:57;;;;;;;1.15;0.73;;;2.60;86.70;;;;;;5030955;28;20173;-73
2020/12/29 08:23:32;;;;;;;0.70;0.70;;;2.60;86.60;;;;;;5032998;28;20064;-72
2020/12/29 08:26:00;;;;;;;0.60;0.60;;;2.60;86.60;;;;;;5019833;28;20040;-72
2020/12/29 08:28:26;;;;;;;0.60;0.60;;;2.60;86.60;;;;;;5032519;28;20473;-72
2020/12/29 08:30:52;;;;;;;1.23;0.80;;;2.60;86.60;;;;;;5033311;28;20029;-73
2020/12/29 08:33:24;;;;;;;0.60;0.60;;;2.60;86.70;;;;;;5031330;28;20055;-72
2020/12/29 08:35:53;;;;;;;0.60;0.60;;;2.60;86.90;;;;;;5028725;28;20061;-72
2020/12/29 08:38:42;;;;;;;0.50;0.50;;;2.50;86.90;;;;;;5032511;28;20099;-72
2020/12/29 08:41:07;;;;;;;2.38;1.52;;;2.50;87.40;;;;;;5031920;28;20462;-71
2020/12/29 08:43:40;;;;;;;0.50;0.50;;;2.50;87.40;;;;;;5028812;28;20104;-72
2020/12/29 08:46:07;;;;;;;0.50;0.50;;;2.60;87.70;;;;;;5031935;28;20434;-73
2020/12/29 08:48:33;;;;;;;0.60;0.60;;;2.60;88.00;;;;;;5032163;28;20466;-72
2020/12/29 08:51:00;;;;;;;0.60;0.60;;;2.70;87.80;;;;;;5034895;28;20048;-73
2020/12/29 08:53:27;;;;;;;0.50;0.50;;;2.70;87.90;;;;;;5032270;28;20387;-73
2020/12/29 08:55:53;;;;;;;0.65;0.65;;;2.70;88.00;;;;;;5032008;28;20539;-73
2020/12/29 08:58:26;;;;;;;0.70;0.70;;;2.80;88.00;;;;;;5031571;28;20022;-74
2020/12/29 09:00:52;;;;;;;0.70;0.70;;;2.80;88.00;;;;;;5031500;28;20109;-73
2020/12/29 09:03:21;;;;;;;3.55;3.17;;;2.90;88.00;;;;;;5032147;28;20034;-72
2020/12/29 09:05:49;;;;;;;2.00;1.90;;;2.90;87.90;;;;;;5028387;28;20407;-72
2020/12/29 09:08:25;;;;;;;3.47;2.55;;;3.00;87.90;;;;;;5030368;28;20037;-73
2020/12/29 09:11:10;;;;;;;4.45;2.63;;;3.10;87.90;;;;;;5027884;28;20022;-73
2020/12/29 09:13:36;;;;;;;1.90;1.80;;;3.10;87.70;;;;;;5028457;28;20204;-72
2020/12/29 09:16:12;;;;;;;0.80;0.80;;;3.20;87.50;;;;;;5030736;28;20485;-73
2020/12/29 09:18:39;;;;;;;2.30;2.03;;;3.30;87.30;;;;;;5031355;28;20043;-73
2020/12/29 09:21:24;;;;;;;1.10;1.10;;;3.30;87.20;;;;;;5031498;28;20088;-73
2020/12/29 09:24:03;;;;;;;1.30;1.30;;;3.40;87.40;;;;;;5032206;28;20429;-72
2020/12/29 09:26:29;;;;;;;0.68;0.68;;;3.40;86.80;;;;;;5035187;28;20033;-73
2020/12/29 09:28:56;;;;;;;0.90;0.90;;;3.50;86.70;;;;;;5030684;28;20029;-74
2020/12/29 09:31:29;;;;;;;0.80;0.80;;;3.50;86.70;;;;;;5031407;28;20029;-73
2020/12/29 09:33:57;;;;;;;0.60;0.60;;;3.50;86.60;;;;;;5019594;28;20077;-73
2020/12/29 09:36:25;;;;;;;0.70;0.70;;;3.50;86.50;;;;;;5030300;28;20033;-73
2020/12/29 09:38:52;;;;;;;0.60;0.60;;;3.50;86.40;;;;;;5031371;28;20014;-73
2020/12/29 09:41:18;;;;;;;0.47;0.47;;;3.60;86.40;;;;;;5031299;28;20030;-73
2020/12/29 09:43:50;;;;;;;1.60;1.50;;;3.60;86.50;;;;;;5031098;28;20037;-73
2020/12/29 09:46:15;;;;;;;1.00;1.00;;;3.60;86.40;;;;;;5031608;28;20037;-73
2020/12/29 09:48:42;;;;;;;1.92;1.60;;;3.60;86.30;;;;;;5040523;28;20809;-72
2020/12/29 09:51:10;;;;;;;4.13;2.53;;;3.70;86.30;;;;;;5028660;28;20173;-72
2020/12/29 09:53:36;;;;;;;3.67;2.78;;;3.70;86.30;;;;;;5031028;28;20462;-72
2020/12/29 09:56:01;;;;;;;6.07;4.45;;;3.60;86.30;;;;;;5013399;28;20060;-72
2020/12/29 09:58:27;;;;;;;4.25;2.75;;;3.70;86.30;;;;;;5031690;28;20017;-72
2020/12/29 10:00:52;;;;;;;1.30;1.30;;;3.70;86.30;;;;;;5030668;28;20125;-72
2020/12/29 10:03:18;;;;;;;1.75;1.42;;;3.80;86.20;;;;;;5030530;28;20492;-73
2020/12/29 10:05:44;;;;;;;12.73;8.60;;;3.80;86.20;;;;;;5025754;28;20034;-73
2020/12/29 10:08:13;;;;;;;2.60;2.40;;;3.90;86.20;;;;;;5027652;28;20478;-73
2020/12/29 10:10:39;;;;;;;1.45;1.35;;;3.90;86.10;;;;;;5011214;28;20026;-73
2020/12/29 10:13:05;;;;;;;7.90;4.50;;;4.00;86.10;;;;;;5018390;28;20132;-74
2020/12/29 10:15:31;;;;;;;1.33;1.17;;;4.00;86.20;;;;;;5030325;28;20409;-74
2020/12/29 10:17:56;;;;;;;0.98;0.98;;;4.10;86.20;;;;;;5021775;28;20196;-74
2020/12/29 10:20:22;;;;;;;1.27;1.17;;;4.10;86.00;;;;;;5031302;28;20057;-72
2020/12/29 10:22:48;;;;;;;1.85;1.00;;;4.10;86.00;;;;;;5030683;28;20057;-73
2020/12/29 10:25:17;;;;;;;1.08;0.90;;;4.00;86.00;;;;;;5030211;28;20080;-73
2020/12/29 10:27:45;;;;;;;1.42;1.30;;;4.00;86.00;;;;;;5031077;28;20021;-72
2020/12/29 10:30:10;;;;;;;2.42;1.70;;;4.00;86.20;;;;;;5030831;28;20452;-75
2020/12/29 10:32:37;;;;;;;1.52;1.42;;;3.90;86.30;;;;;;5029426;28;20029;-73
2020/12/29 10:35:03;;;;;;;1.67;1.55;;;3.90;86.50;;;;;;5030235;28;20118;-73
2020/12/29 10:37:29;;;;;;;1.60;1.50;;;3.90;86.60;;;;;;5028128;28;20481;-74
2020/12/29 10:39:54;;;;;;;1.23;1.10;;;3.90;86.50;;;;;;5029262;28;20052;-73
2020/12/29 10:42:20;;;;;;;1.08;0.98;;;3.90;86.60;;;;;;5030446;28;20021;-74
2020/12/29 10:44:45;;;;;;;2.40;1.40;;;3.90;86.60;;;;;;5029613;28;20029;-73
2020/12/29 10:47:11;;;;;;;2.72;1.83;;;3.90;86.70;;;;;;5030376;28;20029;-73
2020/12/29 10:49:37;;;;;;;1.95;1.75;;;3.90;87.30;;;;;;5030871;28;20029;-73
2020/12/29 10:52:02;;;;;;;2.25;1.23;;;3.90;86.70;;;;;;5030464;28;20036;-73
2020/12/29 10:54:28;;;;;;;1.25;0.90;;;3.90;86.40;;;;;;5029596;28;20033;-74
2020/12/29 10:56:53;;;;;;;1.42;1.25;;;3.90;86.50;;;;;;5030680;28;20478;-73
2020/12/29 10:59:19;;;;;;;1.70;1.60;;;3.90;86.60;;;;;;5030465;28;20030;-73
2020/12/29 11:01:44;;;;;;;1.17;1.10;;;4.00;86.50;;;;;;5030180;28;20107;-73
2020/12/29 11:04:10;;;;;;;0.80;0.80;;;4.00;86.70;;;;;;5023012;28;20160;-74
2020/12/29 11:06:35;;;;;;;0.70;0.70;;;4.00;86.40;;;;;;5030363;28;20037;-73
2020/12/29 11:09:01;;;;;;;0.60;0.60;;;4.00;86.30;;;;;;5030312;28;20041;-74
2020/12/29 11:11:26;;;;;;;0.70;0.70;;;4.00;86.10;;;;;;5028996;28;20033;-75
2020/12/29 11:13:52;;;;;;;0.60;0.60;;;4.00;86.20;;;;;;5029420;28;20040;-75
2020/12/29 11:16:21;;;;;;;0.77;0.77;;;3.90;86.20;;;;;;5030333;28;20031;-73
2020/12/29 11:18:50;;;;;;;0.60;0.60;;;4.00;86.20;;;;;;5030220;28;20034;-74
2020/12/29 11:21:16;;;;;;;1.27;0.90;;;4.00;86.30;;;;;;5030175;28;20108;-73
2020/12/29 11:23:42;;;;;;;1.92;0.80;;;4.00;86.20;;;;;;5028981;28;20033;-75
2020/12/29 11:26:08;;;;;;;0.60;0.60;;;4.00;86.00;;;;;;5028483;28;20103;-73
2020/12/29 11:28:33;;;;;;;1.13;0.80;;;4.00;85.70;;;;;;5030132;28;20026;-73
2020/12/29 11:30:59;;;;;;;3.08;0.70;;;4.10;85.70;;;;;;5029959;28;20122;-73
2020/12/29 11:33:25;;;;;;;1.08;0.77;;;4.10;85.60;;;;;;5029556;28;20044;-74
2020/12/29 11:35:50;;;;;;;0.88;0.88;;;4.20;85.60;;;;;;5028041;28;20029;-73
2020/12/29 11:38:17;;;;;;;1.25;0.80;;;4.20;85.50;;;;;;5089504;23;20056;-68
2020/12/29 11:40:43;;;;;;;1.23;0.80;;;4.30;85.50;;;;;;5012142;28;20025;-68
2020/12/29 11:43:09;;;;;;;3.28;1.10;;;4.30;85.50;;;;;;5030034;28;20120;-68
2020/12/29 11:45:36;;;;;;;2.20;1.30;;;4.30;85.20;;;;;;5029372;28;20033;-68
2020/12/29 11:48:01;;;;;;;3.55;2.42;;;4.40;84.70;;;;;;5030063;28;20028;-69
2020/12/29 11:50:27;;;;;;;1.33;1.20;;;4.30;84.50;;;;;;5029800;28;20404;-69
2020/12/29 11:52:53;;;;;;;2.88;1.90;;;4.40;84.20;;;;;;5011876;28;20026;-68
2020/12/29 11:55:18;;;;;;;3.05;1.38;;;4.40;84.30;;;;;;5028766;28;20029;-69
2020/12/29 11:57:44;;;;;;;11.13;5.40;;;4.50;84.30;;;;;;5032733;28;20033;-69
2020/12/29 12:00:09;;;;;;;2.15;1.95;;;4.50;84.30;;;;;;5015310;28;20029;-69
2020/12/29 12:02:35;;;;;;;4.07;1.92;;;4.60;84.20;;;;;;5027046;28;20022;-69
2020/12/29 12:05:01;;;;;;;3.05;2.17;;;4.60;84.00;;;;;;4995212;28;20034;-69
2020/12/29 12:07:27;;;;;;;1.60;1.45;;;4.60;83.90;;;;;;5015326;28;20025;-69
2020/12/29 12:09:52;;;;;;;3.38;0.95;;;4.60;84.10;;;;;;5033337;28;20059;-68
2020/12/29 12:12:18;;;;;;;1.60;0.90;;;4.60;83.90;;;;;;5032926;28;20396;-69
2020/12/29 12:14:44;;;;;;;2.00;1.25;;;4.80;83.50;;;;;;5014807;28;20378;-69
2020/12/29 12:17:09;;;;;;;3.92;1.70;;;5.00;83.30;;;;;;5033459;28;20034;-69
2020/12/29 12:19:35;;;;;;;2.63;1.10;;;5.30;82.90;;;;;;5033368;28;20404;-69
2020/12/29 12:22:03;;;;;;;2.28;0.90;;;5.50;82.90;;;;;;5015325;28;20030;-69
2020/12/29 12:24:29;;;;;;;1.98;1.23;;;5.60;82.90;;;;;;5032284;28;20096;-68
2020/12/29 12:26:55;;;;;;;3.05;1.50;;;5.70;81.80;;;;;;5015395;28;20033;-69
2020/12/29 12:29:20;;;;;;;1.63;1.20;;;5.90;81.20;;;;;;5015571;28;20496;-70
2020/12/29 12:31:46;;;;;;;2.33;1.08;;;6.00;80.70;;;;;;5015496;28;20037;-69
2020/12/29 12:34:11;;;;;;;4.63;1.02;;;5.90;79.60;;;;;;5031832;28;20033;-69
2020/12/29 12:36:38;;;;;;;1.88;1.23;;;5.90;80.50;;;;;;5015024;28;20029;-68
2020/12/29 12:39:04;;;;;;;2.58;1.65;;;5.70;79.70;;;;;;5030815;28;20534;-69
2020/12/29 12:41:29;;;;;;;2.60;1.33;;;5.80;80.20;;;;;;5015070;28;20424;-69
2020/12/29 12:43:55;;;;;;;3.30;1.30;;;5.80;80.40;;;;;;5031177;28;20029;-72
2020/12/29 12:46:21;;;;;;;4.97;1.42;;;5.90;80.30;;;;;;5014922;28;20047;-72
2020/12/29 12:48:46;;;;;;;3.45;1.60;;;6.00;80.00;;;;;;5032363;28;20056;-72
2020/12/29 12:51:13;;;;;;;5.05;1.83;;;6.20;79.60;;;;;;5033133;28;20041;-71
2020/12/29 12:53:41;;;;;;;2.45;1.60;;;6.20;79.20;;;;;;5032082;28;20106;-72
2020/12/29 12:56:14;;;;;;;3.83;1.27;;;6.20;79.80;;;;;;5031793;28;20026;-71
2020/12/29 12:58:42;;;;;;;3.05;1.50;;;6.10;78.30;;;;;;5032398;28;20101;-68